sensor_id;sensor_type;location;lat;lon;timestamp;P1;durP1;ratioP1;P2;durP2;ratioP2
55134;SDS011;41031;44.750;11.308;2022-08-04T00:00:49;4.03;;;2.50;;
55134;SDS011;41031;44.750;11.308;2022-08-04T00:03:45;6.10;;;2.80;;
55134;SDS011;41031;44.750;11.308;2022-08-04T00:09:16;6.87;;;2.87;;
55134;SDS011;41031;44.750;11.308;2022-08-04T00:11:51;5.13;;;3.07;;
55134;SDS011;41031;44.750;11.308;2022-08-04T00:14:23;4.73;;;2.43;;
55134;SDS011;41031;44.750;11.308;2022-08-04T00:16:51;4.27;;;2.67;;
55134;SDS011;41031;44.750;11.308;2022-08-04T00:19:22;3.77;;;2.67;;
55134;SDS011;41031;44.750;11.308;2022-08-04T00:21:59;4.70;;;2.67;;
55134;SDS011;41031;44.750;11.308;2022-08-04T00:24:31;4.43;;;2.00;;
55134;SDS011;41031;44.750;11.308;2022-08-04T00:27:01;4.33;;;2.53;;
55134;SDS011;41031;44.750;11.308;2022-08-04T00:29:28;6.80;;;2.83;;
55134;SDS011;41031;44.750;11.308;2022-08-04T00:31:56;5.60;;;2.50;;
55134;SDS011;41031;44.750;11.308;2022-08-04T00:34:25;4.90;;;2.67;;
55134;SDS011;41031;44.750;11.308;2022-08-04T00:36:53;4.47;;;2.80;;
55134;SDS011;41031;44.750;11.308;2022-08-04T00:39:21;3.40;;;2.67;;
55134;SDS011;41031;44.750;11.308;2022-08-04T00:47:38;6.37;;;2.80;;
55134;SDS011;41031;44.750;11.308;2022-08-04T00:52:55;7.30;;;3.17;;
55134;SDS011;41031;44.750;11.308;2022-08-04T01:01:07;5.63;;;2.90;;
55134;SDS011;41031;44.750;11.308;2022-08-04T01:04:08;6.33;;;3.10;;
55134;SDS011;41031;44.750;11.308;2022-08-04T01:15:04;6.87;;;3.23;;
55134;SDS011;41031;44.750;11.308;2022-08-04T01:17:40;4.03;;;3.30;;
55134;SDS011;41031;44.750;11.308;2022-08-04T01:20:16;4.87;;;2.77;;
55134;SDS011;41031;44.750;11.308;2022-08-04T01:25:52;5.97;;;2.73;;
55134;SDS011;41031;44.750;11.308;2022-08-04T01:29:20;4.30;;;3.17;;
55134;SDS011;41031;44.750;11.308;2022-08-04T01:31:58;4.37;;;3.00;;
55134;SDS011;41031;44.750;11.308;2022-08-04T01:34:41;7.23;;;3.23;;
55134;SDS011;41031;44.750;11.308;2022-08-04T01:39:50;4.70;;;3.13;;
55134;SDS011;41031;44.750;11.308;2022-08-04T01:42:27;3.07;;;2.77;;
55134;SDS011;41031;44.750;11.308;2022-08-04T01:44:59;5.70;;;2.87;;
55134;SDS011;41031;44.750;11.308;2022-08-04T01:47:29;7.00;;;3.07;;
55134;SDS011;41031;44.750;11.308;2022-08-04T01:50:00;2.53;;;2.33;;
55134;SDS011;41031;44.750;11.308;2022-08-04T01:52:31;7.73;;;3.00;;
55134;SDS011;41031;44.750;11.308;2022-08-04T01:55:02;6.47;;;3.50;;
55134;SDS011;41031;44.750;11.308;2022-08-04T01:57:31;6.77;;;3.07;;
55134;SDS011;41031;44.750;11.308;2022-08-04T02:00:05;4.30;;;3.40;;
55134;SDS011;41031;44.750;11.308;2022-08-04T02:02:32;8.83;;;3.67;;
55134;SDS011;41031;44.750;11.308;2022-08-04T02:05:00;7.00;;;3.37;;
55134;SDS011;41031;44.750;11.308;2022-08-04T02:07:39;5.90;;;3.23;;
55134;SDS011;41031;44.750;11.308;2022-08-04T02:10:28;9.27;;;3.03;;
55134;SDS011;41031;44.750;11.308;2022-08-04T02:15:41;6.20;;;3.40;;
55134;SDS011;41031;44.750;11.308;2022-08-04T02:18:43;6.03;;;4.20;;
55134;SDS011;41031;44.750;11.308;2022-08-04T02:21:14;7.30;;;3.77;;
55134;SDS011;41031;44.750;11.308;2022-08-04T02:23:46;6.37;;;4.23;;
55134;SDS011;41031;44.750;11.308;2022-08-04T02:26:21;8.93;;;4.00;;
55134;SDS011;41031;44.750;11.308;2022-08-04T02:29:16;5.77;;;3.77;;
55134;SDS011;41031;44.750;11.308;2022-08-04T02:32:02;5.37;;;3.20;;
55134;SDS011;41031;44.750;11.308;2022-08-04T02:37:09;5.93;;;3.47;;
55134;SDS011;41031;44.750;11.308;2022-08-04T02:39:37;9.33;;;3.43;;
55134;SDS011;41031;44.750;11.308;2022-08-04T02:42:14;5.43;;;3.60;;
55134;SDS011;41031;44.750;11.308;2022-08-04T02:44:45;4.30;;;3.13;;
55134;SDS011;41031;44.750;11.308;2022-08-04T02:47:19;6.33;;;3.17;;
55134;SDS011;41031;44.750;11.308;2022-08-04T02:49:49;5.77;;;3.00;;
55134;SDS011;41031;44.750;11.308;2022-08-04T02:52:18;8.60;;;3.27;;
55134;SDS011;41031;44.750;11.308;2022-08-04T02:54:46;6.80;;;4.10;;
55134;SDS011;41031;44.750;11.308;2022-08-04T02:57:18;14.73;;;3.87;;
55134;SDS011;41031;44.750;11.308;2022-08-04T03:11:40;7.47;;;4.47;;
55134;SDS011;41031;44.750;11.308;2022-08-04T03:28:34;5.67;;;3.40;;
55134;SDS011;41031;44.750;11.308;2022-08-04T04:14:03;7.53;;;4.43;;
55134;SDS011;41031;44.750;11.308;2022-08-04T04:32:20;8.20;;;4.87;;
55134;SDS011;41031;44.750;11.308;2022-08-04T04:40:33;7.27;;;5.17;;
55134;SDS011;41031;44.750;11.308;2022-08-04T04:43:25;6.13;;;4.80;;
55134;SDS011;41031;44.750;11.308;2022-08-04T04:46:22;5.80;;;5.23;;
55134;SDS011;41031;44.750;11.308;2022-08-04T04:48:54;6.10;;;5.50;;
55134;SDS011;41031;44.750;11.308;2022-08-04T04:51:50;10.43;;;5.40;;
55134;SDS011;41031;44.750;11.308;2022-08-04T04:54:50;5.47;;;4.93;;
55134;SDS011;41031;44.750;11.308;2022-08-04T04:57:25;5.40;;;5.00;;
55134;SDS011;41031;44.750;11.308;2022-08-04T05:00:16;5.73;;;5.07;;
55134;SDS011;41031;44.750;11.308;2022-08-04T05:11:14;5.33;;;3.70;;
55134;SDS011;41031;44.750;11.308;2022-08-04T05:14:11;5.80;;;3.23;;
55134;SDS011;41031;44.750;11.308;2022-08-04T05:20:03;2.87;;;2.57;;
55134;SDS011;41031;44.750;11.308;2022-08-04T05:22:42;2.93;;;2.63;;
55134;SDS011;41031;44.750;11.308;2022-08-04T05:25:25;6.40;;;2.20;;
55134;SDS011;41031;44.750;11.308;2022-08-04T05:28:31;9.87;;;2.10;;
55134;SDS011;41031;44.750;11.308;2022-08-04T05:31:03;3.70;;;2.00;;
55134;SDS011;41031;44.750;11.308;2022-08-04T05:33:38;2.37;;;2.13;;
55134;SDS011;41031;44.750;11.308;2022-08-04T05:36:17;2.07;;;1.87;;
55134;SDS011;41031;44.750;11.308;2022-08-04T05:39:06;2.13;;;1.93;;
55134;SDS011;41031;44.750;11.308;2022-08-04T05:41:39;2.00;;;1.73;;
55134;SDS011;41031;44.750;11.308;2022-08-04T05:44:16;5.40;;;1.93;;
55134;SDS011;41031;44.750;11.308;2022-08-04T05:46:50;4.40;;;2.17;;
55134;SDS011;41031;44.750;11.308;2022-08-04T05:49:23;4.23;;;2.27;;
55134;SDS011;41031;44.750;11.308;2022-08-04T05:51:57;4.90;;;1.97;;
55134;SDS011;41031;44.750;11.308;2022-08-04T05:54:27;2.23;;;1.97;;
55134;SDS011;41031;44.750;11.308;2022-08-04T05:56:58;4.50;;;2.30;;
55134;SDS011;41031;44.750;11.308;2022-08-04T05:59:28;6.03;;;2.50;;
55134;SDS011;41031;44.750;11.308;2022-08-04T06:01:57;2.30;;;2.07;;
55134;SDS011;41031;44.750;11.308;2022-08-04T06:04:29;7.80;;;2.40;;
55134;SDS011;41031;44.750;11.308;2022-08-04T06:06:58;3.43;;;2.20;;
55134;SDS011;41031;44.750;11.308;2022-08-04T06:09:26;2.83;;;2.10;;
55134;SDS011;41031;44.750;11.308;2022-08-04T06:11:53;3.50;;;2.30;;
55134;SDS011;41031;44.750;11.308;2022-08-04T06:14:43;4.67;;;2.30;;
55134;SDS011;41031;44.750;11.308;2022-08-04T06:17:14;3.43;;;2.63;;
55134;SDS011;41031;44.750;11.308;2022-08-04T06:20:07;5.20;;;2.17;;
55134;SDS011;41031;44.750;11.308;2022-08-04T06:22:57;5.57;;;2.50;;
55134;SDS011;41031;44.750;11.308;2022-08-04T06:25:29;4.53;;;2.30;;
55134;SDS011;41031;44.750;11.308;2022-08-04T06:27:58;5.10;;;2.20;;
55134;SDS011;41031;44.750;11.308;2022-08-04T06:30:30;3.07;;;2.17;;
55134;SDS011;41031;44.750;11.308;2022-08-04T06:32:59;6.03;;;2.00;;
55134;SDS011;41031;44.750;11.308;2022-08-04T06:35:31;5.33;;;2.53;;
55134;SDS011;41031;44.750;11.308;2022-08-04T06:37:59;4.77;;;2.13;;
55134;SDS011;41031;44.750;11.308;2022-08-04T06:40:28;6.43;;;2.70;;
55134;SDS011;41031;44.750;11.308;2022-08-04T06:43:02;3.93;;;2.27;;
55134;SDS011;41031;44.750;11.308;2022-08-04T06:45:33;15.07;;;2.80;;
55134;SDS011;41031;44.750;11.308;2022-08-04T06:48:03;7.77;;;2.40;;
55134;SDS011;41031;44.750;11.308;2022-08-04T06:50:35;9.27;;;2.90;;
55134;SDS011;41031;44.750;11.308;2022-08-04T06:53:23;6.73;;;2.13;;
55134;SDS011;41031;44.750;11.308;2022-08-04T06:55:51;5.73;;;2.50;;
55134;SDS011;41031;44.750;11.308;2022-08-04T06:58:20;10.33;;;3.20;;
55134;SDS011;41031;44.750;11.308;2022-08-04T07:00:48;4.43;;;2.33;;
55134;SDS011;41031;44.750;11.308;2022-08-04T07:03:17;4.33;;;2.70;;
55134;SDS011;41031;44.750;11.308;2022-08-04T07:05:45;7.73;;;2.10;;
55134;SDS011;41031;44.750;11.308;2022-08-04T07:08:14;6.57;;;2.40;;
55134;SDS011;41031;44.750;11.308;2022-08-04T07:10:41;6.23;;;2.50;;
55134;SDS011;41031;44.750;11.308;2022-08-04T07:13:10;8.17;;;2.50;;
55134;SDS011;41031;44.750;11.308;2022-08-04T07:15:40;7.67;;;2.37;;
55134;SDS011;41031;44.750;11.308;2022-08-04T07:18:10;6.30;;;2.67;;
55134;SDS011;41031;44.750;11.308;2022-08-04T07:20:43;6.77;;;2.50;;
55134;SDS011;41031;44.750;11.308;2022-08-04T07:23:12;2.83;;;2.10;;
55134;SDS011;41031;44.750;11.308;2022-08-04T07:25:48;3.00;;;2.40;;
55134;SDS011;41031;44.750;11.308;2022-08-04T07:28:38;3.53;;;2.60;;
55134;SDS011;41031;44.750;11.308;2022-08-04T07:31:08;3.30;;;2.20;;
55134;SDS011;41031;44.750;11.308;2022-08-04T07:33:57;3.47;;;2.30;;
55134;SDS011;41031;44.750;11.308;2022-08-04T07:36:46;7.73;;;2.90;;
55134;SDS011;41031;44.750;11.308;2022-08-04T07:39:16;5.70;;;2.67;;
55134;SDS011;41031;44.750;11.308;2022-08-04T07:41:54;8.77;;;2.40;;
55134;SDS011;41031;44.750;11.308;2022-08-04T07:44:22;4.83;;;2.23;;
55134;SDS011;41031;44.750;11.308;2022-08-04T07:46:50;4.40;;;2.23;;
55134;SDS011;41031;44.750;11.308;2022-08-04T07:49:17;5.07;;;2.00;;
55134;SDS011;41031;44.750;11.308;2022-08-04T07:52:07;5.77;;;2.50;;
55134;SDS011;41031;44.750;11.308;2022-08-04T07:54:34;4.17;;;2.33;;
55134;SDS011;41031;44.750;11.308;2022-08-04T07:57:01;6.57;;;1.90;;
55134;SDS011;41031;44.750;11.308;2022-08-04T07:59:29;2.20;;;1.77;;
55134;SDS011;41031;44.750;11.308;2022-08-04T08:01:58;3.57;;;1.97;;
55134;SDS011;41031;44.750;11.308;2022-08-04T08:04:27;4.20;;;1.60;;
55134;SDS011;41031;44.750;11.308;2022-08-04T08:06:55;6.90;;;1.90;;
55134;SDS011;41031;44.750;11.308;2022-08-04T08:09:23;4.20;;;1.70;;
55134;SDS011;41031;44.750;11.308;2022-08-04T08:11:51;2.70;;;1.80;;
55134;SDS011;41031;44.750;11.308;2022-08-04T08:14:40;3.73;;;1.67;;
55134;SDS011;41031;44.750;11.308;2022-08-04T08:17:08;1.47;;;1.37;;
55134;SDS011;41031;44.750;11.308;2022-08-04T08:19:35;3.27;;;1.40;;
55134;SDS011;41031;44.750;11.308;2022-08-04T08:22:02;1.60;;;1.50;;
55134;SDS011;41031;44.750;11.308;2022-08-04T08:24:34;3.10;;;1.50;;
55134;SDS011;41031;44.750;11.308;2022-08-04T08:27:02;1.70;;;1.50;;
55134;SDS011;41031;44.750;11.308;2022-08-04T08:29:32;2.57;;;1.70;;
55134;SDS011;41031;44.750;11.308;2022-08-04T08:32:01;2.97;;;1.50;;
55134;SDS011;41031;44.750;11.308;2022-08-04T08:34:34;2.87;;;1.47;;
55134;SDS011;41031;44.750;11.308;2022-08-04T08:39:43;5.50;;;1.83;;
55134;SDS011;41031;44.750;11.308;2022-08-04T08:54:07;3.73;;;1.50;;
55134;SDS011;41031;44.750;11.308;2022-08-04T09:00:03;3.33;;;1.40;;
55134;SDS011;41031;44.750;11.308;2022-08-04T09:11:27;1.70;;;1.33;;
55134;SDS011;41031;44.750;11.308;2022-08-04T09:14:04;1.60;;;1.47;;
55134;SDS011;41031;44.750;11.308;2022-08-04T09:16:48;2.80;;;1.43;;
55134;SDS011;41031;44.750;11.308;2022-08-04T09:25:08;1.60;;;1.47;;
55134;SDS011;41031;44.750;11.308;2022-08-04T09:27:49;3.67;;;1.40;;
55134;SDS011;41031;44.750;11.308;2022-08-04T09:30:22;4.47;;;1.77;;
55134;SDS011;41031;44.750;11.308;2022-08-04T09:33:13;2.38;;;1.27;;
55134;SDS011;41031;44.750;11.308;2022-08-04T09:44:47;1.55;;;1.45;;
55134;SDS011;41031;44.750;11.308;2022-08-04T09:50:38;3.40;;;1.77;;
55134;SDS011;41031;44.750;11.308;2022-08-04T09:56:25;5.88;;;1.33;;
55134;SDS011;41031;44.750;11.308;2022-08-04T10:01:28;1.23;;;1.23;;
55134;SDS011;41031;44.750;11.308;2022-08-04T10:04:01;2.50;;;1.33;;
55134;SDS011;41031;44.750;11.308;2022-08-04T10:23:41;1.45;;;1.33;;
55134;SDS011;41031;44.750;11.308;2022-08-04T10:26:34;1.50;;;1.40;;
55134;SDS011;41031;44.750;11.308;2022-08-04T10:29:44;1.60;;;1.50;;
55134;SDS011;41031;44.750;11.308;2022-08-04T10:35:24;3.80;;;1.67;;
55134;SDS011;41031;44.750;11.308;2022-08-04T10:37:43;2.08;;;1.40;;
55134;SDS011;41031;44.750;11.308;2022-08-04T10:46:06;2.67;;;1.75;;
55134;SDS011;41031;44.750;11.308;2022-08-04T10:48:41;6.38;;;1.50;;
55134;SDS011;41031;44.750;11.308;2022-08-04T10:51:18;4.30;;;1.60;;
55134;SDS011;41031;44.750;11.308;2022-08-04T10:53:57;2.80;;;1.30;;
55134;SDS011;41031;44.750;11.308;2022-08-04T10:56:31;5.45;;;2.00;;
55134;SDS011;41031;44.750;11.308;2022-08-04T10:59:01;2.55;;;1.50;;
55134;SDS011;41031;44.750;11.308;2022-08-04T11:01:32;1.77;;;1.65;;
55134;SDS011;41031;44.750;11.308;2022-08-04T11:04:32;2.95;;;1.80;;
55134;SDS011;41031;44.750;11.308;2022-08-04T11:07:00;2.30;;;1.85;;
55134;SDS011;41031;44.750;11.308;2022-08-04T11:09:29;6.65;;;1.55;;
55134;SDS011;41031;44.750;11.308;2022-08-04T11:12:03;6.63;;;1.88;;
55134;SDS011;41031;44.750;11.308;2022-08-04T11:14:43;1.95;;;1.35;;
55134;SDS011;41031;44.750;11.308;2022-08-04T11:17:25;2.97;;;1.50;;
55134;SDS011;41031;44.750;11.308;2022-08-04T11:20:07;3.13;;;1.73;;
55134;SDS011;41031;44.750;11.308;2022-08-04T11:23:18;6.55;;;1.60;;
55134;SDS011;41031;44.750;11.308;2022-08-04T11:31:30;1.50;;;1.40;;
55134;SDS011;41031;44.750;11.308;2022-08-04T11:34:20;1.92;;;1.75;;
55134;SDS011;41031;44.750;11.308;2022-08-04T11:42:30;4.03;;;1.60;;
55134;SDS011;41031;44.750;11.308;2022-08-04T11:47:40;1.50;;;1.40;;
55134;SDS011;41031;44.750;11.308;2022-08-04T11:50:37;4.18;;;1.70;;
55134;SDS011;41031;44.750;11.308;2022-08-04T11:53:12;2.42;;;1.77;;
55134;SDS011;41031;44.750;11.308;2022-08-04T11:55:43;6.18;;;1.83;;
55134;SDS011;41031;44.750;11.308;2022-08-04T11:58:35;2.78;;;1.90;;
55134;SDS011;41031;44.750;11.308;2022-08-04T12:03:45;2.13;;;1.40;;
55134;SDS011;41031;44.750;11.308;2022-08-04T12:06:38;2.15;;;1.50;;
55134;SDS011;41031;44.750;11.308;2022-08-04T12:17:56;3.38;;;1.50;;
55134;SDS011;41031;44.750;11.308;2022-08-04T12:20:48;4.75;;;1.50;;
55134;SDS011;41031;44.750;11.308;2022-08-04T12:23:25;4.45;;;1.80;;
55134;SDS011;41031;44.750;11.308;2022-08-04T12:26:05;1.98;;;1.77;;
55134;SDS011;41031;44.750;11.308;2022-08-04T12:28:36;1.90;;;1.67;;
55134;SDS011;41031;44.750;11.308;2022-08-04T12:31:26;3.47;;;1.60;;
55134;SDS011;41031;44.750;11.308;2022-08-04T12:34:01;2.25;;;1.58;;
55134;SDS011;41031;44.750;11.308;2022-08-04T12:37:03;2.83;;;1.30;;
55134;SDS011;41031;44.750;11.308;2022-08-04T12:39:35;1.38;;;1.27;;
55134;SDS011;41031;44.750;11.308;2022-08-04T12:42:37;1.58;;;1.38;;
55134;SDS011;41031;44.750;11.308;2022-08-04T12:45:25;2.05;;;1.40;;
55134;SDS011;41031;44.750;11.308;2022-08-04T12:47:55;6.13;;;1.70;;
55134;SDS011;41031;44.750;11.308;2022-08-04T12:50:24;3.60;;;1.70;;
55134;SDS011;41031;44.750;11.308;2022-08-04T12:52:54;2.70;;;1.42;;
55134;SDS011;41031;44.750;11.308;2022-08-04T12:55:29;1.67;;;1.58;;
55134;SDS011;41031;44.750;11.308;2022-08-04T12:58:00;5.95;;;1.52;;
55134;SDS011;41031;44.750;11.308;2022-08-04T13:00:37;1.80;;;1.25;;
55134;SDS011;41031;44.750;11.308;2022-08-04T13:03:08;4.80;;;1.42;;
55134;SDS011;41031;44.750;11.308;2022-08-04T13:05:38;2.47;;;1.30;;
55134;SDS011;41031;44.750;11.308;2022-08-04T13:08:07;3.58;;;1.80;;
55134;SDS011;41031;44.750;11.308;2022-08-04T13:10:39;1.30;;;1.20;;
55134;SDS011;41031;44.750;11.308;2022-08-04T13:13:18;4.25;;;1.40;;
55134;SDS011;41031;44.750;11.308;2022-08-04T13:15:56;2.88;;;1.27;;
55134;SDS011;41031;44.750;11.308;2022-08-04T13:18:30;1.60;;;1.50;;
55134;SDS011;41031;44.750;11.308;2022-08-04T13:21:11;2.88;;;1.80;;
55134;SDS011;41031;44.750;11.308;2022-08-04T13:23:49;1.63;;;1.20;;
55134;SDS011;41031;44.750;11.308;2022-08-04T13:26:57;2.10;;;1.60;;
55134;SDS011;41031;44.750;11.308;2022-08-04T13:29:42;1.33;;;1.23;;
55134;SDS011;41031;44.750;11.308;2022-08-04T13:32:26;1.55;;;1.40;;
55134;SDS011;41031;44.750;11.308;2022-08-04T13:34:55;1.98;;;1.35;;
55134;SDS011;41031;44.750;11.308;2022-08-04T13:37:29;1.88;;;1.45;;
55134;SDS011;41031;44.750;11.308;2022-08-04T13:40:04;2.45;;;1.42;;
55134;SDS011;41031;44.750;11.308;2022-08-04T13:42:37;6.32;;;1.60;;
55134;SDS011;41031;44.750;11.308;2022-08-04T13:45:06;2.25;;;1.20;;
55134;SDS011;41031;44.750;11.308;2022-08-04T13:47:35;2.35;;;1.25;;
55134;SDS011;41031;44.750;11.308;2022-08-04T13:50:09;5.85;;;1.92;;
55134;SDS011;41031;44.750;11.308;2022-08-04T13:52:40;9.30;;;1.70;;
55134;SDS011;41031;44.750;11.308;2022-08-04T13:55:22;3.90;;;1.48;;
55134;SDS011;41031;44.750;11.308;2022-08-04T13:57:53;1.60;;;1.30;;
55134;SDS011;41031;44.750;11.308;2022-08-04T14:03:21;4.47;;;1.60;;
55134;SDS011;41031;44.750;11.308;2022-08-04T14:08:47;4.80;;;1.38;;
55134;SDS011;41031;44.750;11.308;2022-08-04T14:11:21;3.95;;;1.30;;
55134;SDS011;41031;44.750;11.308;2022-08-04T14:19:46;1.52;;;1.42;;
55134;SDS011;41031;44.750;11.308;2022-08-04T14:25:24;3.80;;;1.67;;
55134;SDS011;41031;44.750;11.308;2022-08-04T14:27:46;1.55;;;1.27;;
55134;SDS011;41031;44.750;11.308;2022-08-04T14:35:54;3.95;;;2.05;;
55134;SDS011;41031;44.750;11.308;2022-08-04T14:38:24;2.80;;;1.60;;
55134;SDS011;41031;44.750;11.308;2022-08-04T14:41:11;1.73;;;1.38;;
55134;SDS011;41031;44.750;11.308;2022-08-04T14:43:43;2.58;;;1.30;;
55134;SDS011;41031;44.750;11.308;2022-08-04T14:46:12;7.80;;;1.70;;
55134;SDS011;41031;44.750;11.308;2022-08-04T14:48:40;1.50;;;1.40;;
55134;SDS011;41031;44.750;11.308;2022-08-04T14:51:40;7.05;;;1.55;;
55134;SDS011;41031;44.750;11.308;2022-08-04T14:54:32;3.00;;;1.63;;
55134;SDS011;41031;44.750;11.308;2022-08-04T14:57:02;1.60;;;1.50;;
55134;SDS011;41031;44.750;11.308;2022-08-04T14:59:41;1.60;;;1.50;;
55134;SDS011;41031;44.750;11.308;2022-08-04T15:02:28;2.78;;;1.45;;
55134;SDS011;41031;44.750;11.308;2022-08-04T15:04:56;4.03;;;1.40;;
55134;SDS011;41031;44.750;11.308;2022-08-04T15:07:44;1.83;;;1.40;;
55134;SDS011;41031;44.750;11.308;2022-08-04T15:10:12;4.07;;;1.25;;
55134;SDS011;41031;44.750;11.308;2022-08-04T15:12:39;1.70;;;1.52;;
55134;SDS011;41031;44.750;11.308;2022-08-04T15:15:06;6.93;;;1.55;;
55134;SDS011;41031;44.750;11.308;2022-08-04T15:17:54;5.20;;;1.60;;
55134;SDS011;41031;44.750;11.308;2022-08-04T15:20:21;3.25;;;1.23;;
55134;SDS011;41031;44.750;11.308;2022-08-04T15:22:48;5.05;;;1.33;;
55134;SDS011;41031;44.750;11.308;2022-08-04T15:25:16;5.82;;;1.80;;
55134;SDS011;41031;44.750;11.308;2022-08-04T15:27:46;1.55;;;1.45;;
55134;SDS011;41031;44.750;11.308;2022-08-04T15:30:15;3.85;;;1.35;;
55134;SDS011;41031;44.750;11.308;2022-08-04T15:32:51;1.67;;;1.35;;
55134;SDS011;41031;44.750;11.308;2022-08-04T15:35:23;5.05;;;1.38;;
55134;SDS011;41031;44.750;11.308;2022-08-04T15:46:25;1.47;;;1.37;;
55134;SDS011;41031;44.750;11.308;2022-08-04T15:49:21;3.05;;;1.45;;
55134;SDS011;41031;44.750;11.308;2022-08-04T15:52:03;5.85;;;1.83;;
55134;SDS011;41031;44.750;11.308;2022-08-04T15:54:38;6.15;;;1.65;;
55134;SDS011;41031;44.750;11.308;2022-08-04T15:57:55;4.05;;;1.50;;
55134;SDS011;41031;44.750;11.308;2022-08-04T16:16:43;6.28;;;1.60;;
55134;SDS011;41031;44.750;11.308;2022-08-04T16:25:03;1.92;;;1.42;;
55134;SDS011;41031;44.750;11.308;2022-08-04T16:27:36;6.73;;;1.60;;
55134;SDS011;41031;44.750;11.308;2022-08-04T16:30:11;2.85;;;1.75;;
55134;SDS011;41031;44.750;11.308;2022-08-04T16:32:44;2.90;;;1.73;;
55134;SDS011;41031;44.750;11.308;2022-08-04T16:35:25;4.77;;;1.70;;
55134;SDS011;41031;44.750;11.308;2022-08-04T16:38:09;7.77;;;2.13;;
55134;SDS011;41031;44.750;11.308;2022-08-04T16:40:39;1.70;;;1.60;;
55134;SDS011;41031;44.750;11.308;2022-08-04T16:43:14;3.27;;;1.57;;
55134;SDS011;41031;44.750;11.308;2022-08-04T16:45:44;2.50;;;1.50;;
55134;SDS011;41031;44.750;11.308;2022-08-04T16:48:33;3.60;;;1.80;;
55134;SDS011;41031;44.750;11.308;2022-08-04T16:53:39;7.13;;;2.27;;
55134;SDS011;41031;44.750;11.308;2022-08-04T16:56:29;4.87;;;1.90;;
55134;SDS011;41031;44.750;11.308;2022-08-04T16:59:04;6.27;;;2.40;;
55134;SDS011;41031;44.750;11.308;2022-08-04T17:01:35;10.73;;;2.03;;
55134;SDS011;41031;44.750;11.308;2022-08-04T17:04:04;5.27;;;1.70;;
55134;SDS011;41031;44.750;11.308;2022-08-04T17:06:33;3.80;;;1.37;;
55134;SDS011;41031;44.750;11.308;2022-08-04T17:09:10;6.83;;;1.60;;
55134;SDS011;41031;44.750;11.308;2022-08-04T17:11:43;3.13;;;1.57;;
55134;SDS011;41031;44.750;11.308;2022-08-04T17:14:11;3.80;;;1.37;;
55134;SDS011;41031;44.750;11.308;2022-08-04T17:16:40;5.47;;;1.57;;
55134;SDS011;41031;44.750;11.308;2022-08-04T17:19:09;12.17;;;2.47;;
55134;SDS011;41031;44.750;11.308;2022-08-04T17:21:49;14.40;;;2.93;;
55134;SDS011;41031;44.750;11.308;2022-08-04T17:24:17;7.43;;;2.13;;
55134;SDS011;41031;44.750;11.308;2022-08-04T17:26:45;5.33;;;1.63;;
55134;SDS011;41031;44.750;11.308;2022-08-04T17:29:20;7.30;;;1.60;;
55134;SDS011;41031;44.750;11.308;2022-08-04T17:32:16;4.10;;;1.23;;
55134;SDS011;41031;44.750;11.308;2022-08-04T17:34:48;2.60;;;1.40;;
55134;SDS011;41031;44.750;11.308;2022-08-04T17:37:23;2.90;;;1.50;;
55134;SDS011;41031;44.750;11.308;2022-08-04T17:40:12;3.33;;;1.60;;
55134;SDS011;41031;44.750;11.308;2022-08-04T17:43:03;8.77;;;1.90;;
55134;SDS011;41031;44.750;11.308;2022-08-04T17:49:09;3.47;;;1.60;;
55134;SDS011;41031;44.750;11.308;2022-08-04T17:54:33;10.40;;;2.00;;
55134;SDS011;41031;44.750;11.308;2022-08-04T17:57:17;8.57;;;2.23;;
55134;SDS011;41031;44.750;11.308;2022-08-04T17:59:51;5.67;;;1.90;;
55134;SDS011;41031;44.750;11.308;2022-08-04T18:02:25;2.60;;;1.50;;
55134;SDS011;41031;44.750;11.308;2022-08-04T18:05:03;3.07;;;1.40;;
55134;SDS011;41031;44.750;11.308;2022-08-04T18:07:38;2.63;;;1.67;;
55134;SDS011;41031;44.750;11.308;2022-08-04T18:10:39;5.77;;;1.60;;
55134;SDS011;41031;44.750;11.308;2022-08-04T18:13:22;12.13;;;1.60;;
55134;SDS011;41031;44.750;11.308;2022-08-04T18:15:58;4.30;;;1.40;;
55134;SDS011;41031;44.750;11.308;2022-08-04T18:18:29;5.70;;;1.80;;
55134;SDS011;41031;44.750;11.308;2022-08-04T18:20:57;1.90;;;1.30;;
55134;SDS011;41031;44.750;11.308;2022-08-04T18:23:29;6.07;;;1.60;;
55134;SDS011;41031;44.750;11.308;2022-08-04T18:25:59;2.03;;;1.20;;
55134;SDS011;41031;44.750;11.308;2022-08-04T18:28:29;4.13;;;1.47;;
55134;SDS011;41031;44.750;11.308;2022-08-04T18:30:59;2.17;;;1.37;;
55134;SDS011;41031;44.750;11.308;2022-08-04T18:33:27;3.33;;;1.63;;
55134;SDS011;41031;44.750;11.308;2022-08-04T18:36:10;3.90;;;1.60;;
55134;SDS011;41031;44.750;11.308;2022-08-04T18:38:58;3.93;;;1.40;;
55134;SDS011;41031;44.750;11.308;2022-08-04T18:41:41;1.60;;;1.20;;
55134;SDS011;41031;44.750;11.308;2022-08-04T18:44:29;3.13;;;1.43;;
55134;SDS011;41031;44.750;11.308;2022-08-04T18:46:58;6.87;;;1.87;;
55134;SDS011;41031;44.750;11.308;2022-08-04T18:49:46;1.50;;;1.40;;
55134;SDS011;41031;44.750;11.308;2022-08-04T18:52:33;2.03;;;1.43;;
55134;SDS011;41031;44.750;11.308;2022-08-04T18:55:10;5.40;;;1.50;;
55134;SDS011;41031;44.750;11.308;2022-08-04T18:57:37;1.60;;;1.50;;
55134;SDS011;41031;44.750;11.308;2022-08-04T19:00:24;3.37;;;1.20;;
55134;SDS011;41031;44.750;11.308;2022-08-04T19:02:52;4.87;;;1.50;;
55134;SDS011;41031;44.750;11.308;2022-08-04T19:05:19;2.87;;;1.40;;
55134;SDS011;41031;44.750;11.308;2022-08-04T19:07:46;1.77;;;1.57;;
55134;SDS011;41031;44.750;11.308;2022-08-04T19:10:33;3.63;;;1.60;;
55134;SDS011;41031;44.750;11.308;2022-08-04T19:13:01;2.23;;;1.70;;
55134;SDS011;41031;44.750;11.308;2022-08-04T19:15:28;2.27;;;1.50;;
55134;SDS011;41031;44.750;11.308;2022-08-04T19:18:00;3.87;;;1.67;;
55134;SDS011;41031;44.750;11.308;2022-08-04T19:20:32;1.67;;;1.53;;
55134;SDS011;41031;44.750;11.308;2022-08-04T19:23:19;5.60;;;1.37;;
55134;SDS011;41031;44.750;11.308;2022-08-04T19:26:07;4.80;;;1.90;;
55134;SDS011;41031;44.750;11.308;2022-08-04T19:28:54;3.70;;;1.70;;
55134;SDS011;41031;44.750;11.308;2022-08-04T19:31:21;3.17;;;1.60;;
55134;SDS011;41031;44.750;11.308;2022-08-04T19:34:05;5.10;;;1.70;;
55134;SDS011;41031;44.750;11.308;2022-08-04T19:36:32;6.57;;;1.73;;
55134;SDS011;41031;44.750;11.308;2022-08-04T19:39:01;5.03;;;1.73;;
55134;SDS011;41031;44.750;11.308;2022-08-04T19:41:37;2.43;;;1.30;;
55134;SDS011;41031;44.750;11.308;2022-08-04T19:44:24;6.03;;;1.57;;
55134;SDS011;41031;44.750;11.308;2022-08-04T19:46:55;8.17;;;1.70;;
55134;SDS011;41031;44.750;11.308;2022-08-04T19:49:28;6.63;;;1.77;;
55134;SDS011;41031;44.750;11.308;2022-08-04T19:52:15;5.00;;;1.60;;
55134;SDS011;41031;44.750;11.308;2022-08-04T19:55:00;2.43;;;1.70;;
55134;SDS011;41031;44.750;11.308;2022-08-04T19:57:36;4.57;;;1.60;;
55134;SDS011;41031;44.750;11.308;2022-08-04T20:00:14;7.20;;;2.13;;
55134;SDS011;41031;44.750;11.308;2022-08-04T20:02:59;4.03;;;1.77;;
55134;SDS011;41031;44.750;11.308;2022-08-04T20:05:37;4.53;;;1.60;;
55134;SDS011;41031;44.750;11.308;2022-08-04T20:08:21;3.27;;;2.00;;
55134;SDS011;41031;44.750;11.308;2022-08-04T20:10:49;5.90;;;1.73;;
55134;SDS011;41031;44.750;11.308;2022-08-04T20:13:20;11.00;;;1.70;;
55134;SDS011;41031;44.750;11.308;2022-08-04T20:15:51;6.60;;;1.70;;
55134;SDS011;41031;44.750;11.308;2022-08-04T20:18:24;3.23;;;1.43;;
55134;SDS011;41031;44.750;11.308;2022-08-04T20:21:12;4.60;;;1.53;;
55134;SDS011;41031;44.750;11.308;2022-08-04T20:23:50;3.67;;;1.90;;
55134;SDS011;41031;44.750;11.308;2022-08-04T20:26:17;3.50;;;1.57;;